Terminal Aerodrome Forecast
Issued by NWS

Home | Current Version | Previous Version | Text Only | Print | Product List | Glossary On
Versions: 1 2 3 4 5 6 7 8 9 10 11 12 13
847
FTUS45 KABQ 031122
TAFAEG
TAF
KAEG 031122Z 0312/0412 34006KT P6SM SCT020 OVC070
     FM031800 35009KT P6SM SCT080 BKN100
     FM032300 33009KT P6SM SKC=

USA.gov is the U.S. government's official web portal to all federal, state and local government web resources and services.